Time;durP1;ratioP1;P1;durP2;ratioP2;P2;SDS_P1;SDS_P2;PMS_P1;PMS_P2;Temp;Humidity;BMP_temperature;BMP_pressure;BME280_temperature;BME280_humidity;BME280_pressure;Samples;Min_cycle;Max_cycle;Signal;HPM_P1;HPM_P2
2021/12/26 00:01:44;;;;;;;5.10;2.00;;;;;;;-2.89;67.94;100771.69;5075709;28;20058;-73
2021/12/26 00:04:13;;;;;;;4.82;2.17;;;;;;;-2.87;68.87;100777.66;5087415;28;20031;-73
2021/12/26 00:06:39;;;;;;;5.32;2.03;;;;;;;-2.88;68.40;100768.16;5088659;28;20032;-72
2021/12/26 00:09:04;;;;;;;2.80;1.73;;;;;;;-2.87;68.29;100770.66;5089458;28;20035;-72
2021/12/26 00:11:29;;;;;;;5.82;2.67;;;;;;;-2.87;68.67;100775.03;5089114;28;20352;-73
2021/12/26 00:13:55;;;;;;;3.95;2.40;;;;;;;-2.87;68.66;100769.81;5085614;28;20090;-73
2021/12/26 00:16:21;;;;;;;6.03;2.05;;;;;;;-2.89;68.45;100767.31;5076463;28;20024;-72
2021/12/26 00:18:47;;;;;;;4.35;2.30;;;;;;;-2.88;68.76;100769.00;5089118;28;20056;-72
2021/12/26 00:21:20;;;;;;;3.50;2.00;;;;;;;-2.87;69.11;100764.59;5088833;28;20078;-72
2021/12/26 00:23:46;;;;;;;4.93;2.80;;;;;;;-2.85;68.20;100772.31;5089023;28;20027;-72
2021/12/26 00:26:11;;;;;;;4.30;2.00;;;;;;;-2.83;68.71;100767.81;5083810;28;20046;-72
2021/12/26 00:28:37;;;;;;;5.95;2.05;;;;;;;-2.82;69.52;100770.31;5085125;28;20066;-72
2021/12/26 00:31:04;;;;;;;5.28;2.47;;;;;;;-2.81;69.33;100769.34;5089201;28;20024;-72
2021/12/26 00:33:29;;;;;;;4.10;2.13;;;;;;;-2.80;69.70;100760.59;5088741;28;20075;-73
2021/12/26 00:35:56;;;;;;;4.85;2.72;;;;;;;-2.80;69.06;100752.78;5089008;28;20060;-72
2021/12/26 00:38:22;;;;;;;4.07;2.47;;;;;;;-2.81;69.58;100758.91;5088430;28;20395;-72
2021/12/26 00:40:48;;;;;;;5.03;2.78;;;;;;;-2.86;68.92;100748.00;5088977;28;20054;-72
2021/12/26 00:43:13;;;;;;;4.80;2.20;;;;;;;-2.88;69.53;100750.72;5088797;28;20356;-72
2021/12/26 00:45:40;;;;;;;3.92;2.13;;;;;;;-2.90;69.61;100749.16;5092523;28;20093;-72
2021/12/26 00:48:07;;;;;;;5.28;2.92;;;;;;;-2.93;70.26;100738.97;5092690;28;20360;-72
2021/12/26 00:50:33;;;;;;;4.65;2.33;;;;;;;-2.95;69.65;100754.72;5092818;28;20024;-72
2021/12/26 00:52:59;;;;;;;6.05;2.03;;;;;;;-2.98;70.24;100746.28;5092801;28;20028;-72
2021/12/26 00:55:25;;;;;;;7.63;2.63;;;;;;;-3.01;70.26;100736.06;5092494;28;20131;-72
2021/12/26 00:57:51;;;;;;;3.40;2.65;;;;;;;-3.03;70.16;100743.19;5079393;28;20024;-72
2021/12/26 01:00:20;;;;;;;3.90;2.33;;;;;;;-3.06;71.31;100749.47;5092274;28;20058;-72
2021/12/26 01:02:46;;;;;;;5.63;2.45;;;;;;;-3.10;70.96;100748.00;5092245;28;20446;-72
2021/12/26 01:05:13;;;;;;;9.50;3.85;;;;;;;-3.17;71.94;100737.19;5092591;28;20032;-72
2021/12/26 01:07:53;;;;;;;4.13;2.13;;;;;;;-3.14;71.27;100742.19;5076212;28;20402;-72
2021/12/26 01:10:21;;;;;;;6.00;2.88;;;;;;;-3.14;70.67;100749.19;5072943;28;20454;-72
2021/12/26 01:12:48;;;;;;;4.10;2.67;;;;;;;-3.14;71.68;100750.00;5072920;28;20063;-73
2021/12/26 01:15:14;;;;;;;4.88;2.28;;;;;;;-3.16;71.61;100754.50;5072711;28;20037;-71
2021/12/26 01:17:43;;;;;;;6.20;2.28;;;;;;;-3.19;71.67;100746.06;5072844;28;20128;-72
2021/12/26 01:20:18;;;;;;;18.65;5.13;;;;;;;-3.15;71.87;100760.53;5072926;28;20063;-72
2021/12/26 01:22:44;;;;;;;3.90;2.50;;;;;;;-3.16;71.27;100757.09;5072754;28;20492;-72
2021/12/26 01:25:09;;;;;;;4.38;2.78;;;;;;;-3.12;70.84;100763.78;5072861;28;20032;-72
2021/12/26 01:27:36;;;;;;;5.00;3.22;;;;;;;-3.12;71.43;100757.72;5072185;28;20028;-72
2021/12/26 01:30:04;;;;;;;4.95;2.10;;;;;;;-3.10;72.08;100767.09;5073843;28;20449;-72
2021/12/26 01:32:29;;;;;;;4.50;2.20;;;;;;;-3.09;71.67;100762.72;5072291;28;20032;-72
2021/12/26 01:34:54;;;;;;;4.50;2.58;;;;;;;-3.04;71.73;100763.19;5072459;28;20101;-72
2021/12/26 01:37:20;;;;;;;4.00;2.75;;;;;;;-3.04;71.07;100754.53;5072613;28;20024;-72
2021/12/26 01:39:45;;;;;;;6.30;3.58;;;;;;;-3.02;71.47;100755.28;5081593;28;20035;-70
2021/12/26 01:42:11;;;;;;;6.47;2.50;;;;;;;-3.04;71.07;100760.59;5072439;28;20036;-72
2021/12/26 01:44:40;;;;;;;4.72;2.47;;;;;;;-3.01;72.03;100751.72;5070780;28;20514;-72
2021/12/26 01:47:05;;;;;;;3.50;2.33;;;;;;;-3.04;71.04;100752.75;5071766;28;20035;-72
2021/12/26 01:49:32;;;;;;;6.70;2.38;;;;;;;-3.07;70.79;100747.78;5072273;28;20036;-72
2021/12/26 01:52:03;;;;;;;7.63;3.15;;;;;;;-3.02;71.16;100755.28;5091458;28;20669;-70
2021/12/26 01:57:06;;;;;;;3.72;2.28;;;;;;;-3.03;71.84;100745.78;5091228;28;20079;-72
2021/12/26 01:59:32;;;;;;;9.57;3.00;;;;;;;-3.02;70.26;100739.63;5091452;28;20069;-72
2021/12/26 02:01:59;;;;;;;4.20;2.42;;;;;;;-3.02;69.91;100739.63;5091292;28;20020;-72
2021/12/26 02:04:28;;;;;;;7.38;2.50;;;;;;;-3.04;71.08;100734.50;5091708;28;20028;-72
2021/12/26 02:07:01;;;;;;;9.55;2.78;;;;;;;-3.01;70.77;100738.66;5071864;28;20027;-72
2021/12/26 02:09:26;;;;;;;7.15;2.38;;;;;;;-3.01;71.87;100734.31;5091267;28;20028;-72
2021/12/26 02:11:53;;;;;;;10.10;5.55;;;;;;;-3.02;71.82;100724.78;5091308;28;20034;-72
2021/12/26 02:14:18;;;;;;;6.68;3.00;;;;;;;-3.06;71.81;100733.81;5091306;28;20980;-72
2021/12/26 02:16:44;;;;;;;7.68;4.43;;;;;;;-3.04;70.80;100733.69;5091287;28;20034;-72
2021/12/26 02:19:11;;;;;;;10.43;3.92;;;;;;;-3.04;71.14;100734.50;5091040;28;20395;-70
2021/12/26 02:24:16;;;;;;;6.50;3.92;;;;;;;-3.05;70.85;100724.19;5090994;28;20032;-72
2021/12/26 02:29:25;;;;;;;5.60;2.40;;;;;;;-3.04;70.59;100720.63;5090982;28;20062;-72
2021/12/26 02:31:51;;;;;;;5.03;2.83;;;;;;;-3.03;70.77;100722.31;5083607;28;20040;-72
2021/12/26 02:34:16;;;;;;;3.47;2.10;;;;;;;-3.06;70.82;100709.50;5071179;28;20043;-72
2021/12/26 02:36:42;;;;;;;3.50;2.20;;;;;;;-3.06;70.80;100712.13;5071369;28;20378;-72
2021/12/26 02:39:07;;;;;;;4.80;2.40;;;;;;;-3.06;70.38;100720.75;5075811;28;20500;-72
2021/12/26 02:41:33;;;;;;;4.95;2.63;;;;;;;-3.05;70.85;100725.03;5090367;28;20019;-72
2021/12/26 02:43:58;;;;;;;5.97;3.03;;;;;;;-3.11;70.22;100713.28;5090574;28;20024;-72
2021/12/26 02:46:27;;;;;;;4.68;2.10;;;;;;;-3.11;70.85;100721.09;5089022;28;20915;-72
2021/12/26 02:48:53;;;;;;;5.88;2.47;;;;;;;-3.10;71.15;100719.31;5089955;28;20461;-72
2021/12/26 02:51:18;;;;;;;4.85;2.70;;;;;;;-3.09;71.42;100715.78;5090435;28;20069;-72
2021/12/26 02:53:49;;;;;;;5.78;3.03;;;;;;;-3.08;71.09;100717.44;5090375;28;20466;-72
2021/12/26 02:56:15;;;;;;;6.55;2.30;;;;;;;-3.11;70.18;100715.88;5090478;28;20451;-72
2021/12/26 02:58:41;;;;;;;6.97;2.60;;;;;;;-3.08;70.15;100715.66;5090348;28;20024;-72
2021/12/26 03:01:10;;;;;;;6.50;2.58;;;;;;;-3.08;70.83;100714.81;5090240;28;20035;-72
2021/12/26 03:03:36;;;;;;;8.57;3.28;;;;;;;-3.10;70.33;100714.91;5070808;28;20030;-72
2021/12/26 03:06:09;;;;;;;5.32;2.63;;;;;;;-3.11;70.29;100712.44;5070508;28;20036;-72
2021/12/26 03:08:34;;;;;;;5.03;2.40;;;;;;;-3.10;71.54;100719.31;5089930;28;20077;-73
2021/12/26 03:11:00;;;;;;;4.70;3.08;;;;;;;-3.11;70.42;100722.88;5090074;28;20032;-72
2021/12/26 03:13:26;;;;;;;4.63;2.10;;;;;;;-3.13;71.65;100714.31;5090053;28;20039;-70
2021/12/26 03:15:52;;;;;;;6.32;2.65;;;;;;;-3.12;71.85;100713.38;5090114;28;20058;-70
2021/12/26 03:18:18;;;;;;;3.67;2.33;;;;;;;-3.11;72.29;100717.66;5090272;28;20115;-70
2021/12/26 03:20:46;;;;;;;8.05;2.63;;;;;;;-3.12;72.34;100716.84;5090035;28;20051;-70
2021/12/26 03:23:16;;;;;;;6.05;2.40;;;;;;;-3.11;71.65;100715.06;5090013;28;20475;-72
2021/12/26 03:25:42;;;;;;;5.30;2.58;;;;;;;-3.12;71.43;100710.75;5089676;28;20039;-70
2021/12/26 03:28:08;;;;;;;7.60;2.85;;;;;;;-3.14;71.62;100712.66;5070453;28;20027;-70
2021/12/26 03:30:34;;;;;;;4.97;2.60;;;;;;;-3.16;71.74;100710.16;5070454;28;20356;-70
2021/12/26 03:33:01;;;;;;;4.97;2.50;;;;;;;-3.16;71.43;100711.94;5070525;28;20044;-70
2021/12/26 03:35:29;;;;;;;4.50;2.35;;;;;;;-3.18;71.29;100706.81;5070326;28;20036;-70
2021/12/26 03:37:55;;;;;;;4.22;2.10;;;;;;;-3.20;70.83;100700.06;5071140;28;20052;-73
2021/12/26 03:40:21;;;;;;;4.80;2.83;;;;;;;-3.21;70.80;100696.63;5089587;28;20039;-70
2021/12/26 03:42:46;;;;;;;3.55;1.92;;;;;;;-3.24;72.10;100699.47;5088891;28;20032;-71
2021/12/26 03:45:12;;;;;;;5.35;2.25;;;;;;;-3.24;71.46;100683.81;5070045;28;20052;-70
2021/12/26 03:47:39;;;;;;;4.57;2.58;;;;;;;-3.19;71.64;100688.69;5068821;28;20414;-73
2021/12/26 03:50:07;;;;;;;5.53;2.53;;;;;;;-3.28;71.28;100682.34;5075957;28;20051;-72
2021/12/26 03:52:33;;;;;;;5.75;2.53;;;;;;;-3.33;71.08;100676.63;5089373;28;20102;-70
2021/12/26 03:54:58;;;;;;;7.13;3.30;;;;;;;-3.28;71.20;100681.53;5089240;28;20040;-73
2021/12/26 03:57:23;;;;;;;4.35;3.00;;;;;;;-3.28;72.18;100690.19;5088036;28;20478;-70
2021/12/26 03:59:49;;;;;;;6.05;2.50;;;;;;;-3.27;71.71;100689.25;5089499;28;20047;-72
2021/12/26 04:02:15;;;;;;;5.25;2.65;;;;;;;-3.31;71.96;100675.59;5089339;28;20793;-70
2021/12/26 04:04:42;;;;;;;7.85;3.25;;;;;;;-3.28;71.32;100689.34;5089251;28;20036;-72
2021/12/26 04:07:08;;;;;;;6.47;2.90;;;;;;;-3.33;71.57;100687.94;5076197;28;20051;-70
2021/12/26 04:09:34;;;;;;;5.28;2.50;;;;;;;-3.29;71.59;100700.75;5069917;28;20025;-72
2021/12/26 04:11:59;;;;;;;4.70;2.55;;;;;;;-3.28;71.75;100694.56;5068521;28;20037;-70
2021/12/26 04:14:25;;;;;;;4.30;2.33;;;;;;;-3.35;71.40;100687.19;5069868;28;20040;-73
2021/12/26 04:16:50;;;;;;;7.60;2.95;;;;;;;-3.33;71.90;100679.25;5069960;28;20115;-73
2021/12/26 04:19:16;;;;;;;5.82;2.70;;;;;;;-3.35;72.31;100676.78;5072423;28;20379;-70
2021/12/26 04:21:41;;;;;;;6.22;2.60;;;;;;;-3.35;71.36;100678.56;5076917;28;20028;-70
2021/12/26 04:24:07;;;;;;;4.78;2.40;;;;;;;-3.42;72.40;100678.16;5081038;28;20028;-73
2021/12/26 04:26:32;;;;;;;7.07;2.80;;;;;;;-3.48;72.67;100667.31;5073587;28;20021;-70
2021/12/26 04:28:58;;;;;;;5.15;3.05;;;;;;;-3.50;72.27;100669.22;5072470;28;20028;-70
2021/12/26 04:31:23;;;;;;;8.60;3.15;;;;;;;-3.52;71.90;100666.72;5073998;28;20036;-70
2021/12/26 04:33:50;;;;;;;8.45;2.70;;;;;;;-3.51;73.34;100678.81;5073972;28;20963;-73
2021/12/26 04:36:16;;;;;;;7.47;2.65;;;;;;;-3.54;72.73;100673.81;5078344;28;20032;-71
2021/12/26 04:38:44;;;;;;;8.50;3.45;;;;;;;-3.55;73.40;100679.97;5092936;28;20028;-71
2021/12/26 04:41:11;;;;;;;7.28;3.17;;;;;;;-3.59;72.75;100674.16;5092574;28;20143;-70
2021/12/26 04:43:37;;;;;;;5.30;2.70;;;;;;;-3.58;72.97;100673.22;5089312;28;20028;-70
2021/12/26 04:46:05;;;;;;;6.22;3.22;;;;;;;-3.62;73.93;100668.31;5073116;28;20032;-71
2021/12/26 04:48:32;;;;;;;4.80;2.53;;;;;;;-3.63;73.28;100674.47;5072993;28;20020;-71
2021/12/26 04:50:57;;;;;;;8.77;2.92;;;;;;;-3.67;73.52;100670.41;5072971;28;20033;-71
2021/12/26 04:53:23;;;;;;;7.05;2.88;;;;;;;-3.76;74.09;100649.28;5087379;28;20089;-70
2021/12/26 04:55:48;;;;;;;5.47;2.83;;;;;;;-3.76;74.33;100664.94;5074788;28;20048;-70
2021/12/26 04:58:14;;;;;;;6.30;3.08;;;;;;;-3.76;74.06;100672.75;5071880;28;20044;-70
2021/12/26 05:00:39;;;;;;;4.78;2.78;;;;;;;-3.78;74.74;100663.38;5073372;28;20099;-70
2021/12/26 05:03:07;;;;;;;4.72;2.42;;;;;;;-3.79;74.40;100661.72;5074919;28;20947;-70
2021/12/26 05:05:33;;;;;;;4.60;2.90;;;;;;;-3.81;73.92;100661.81;5092112;28;20471;-70
2021/12/26 05:07:59;;;;;;;7.22;4.10;;;;;;;-3.82;74.00;100662.75;5092369;28;20422;-71
2021/12/26 05:10:27;;;;;;;8.85;3.20;;;;;;;-3.86;74.51;100658.69;5092424;28;20047;-70
2021/12/26 05:12:52;;;;;;;7.03;3.47;;;;;;;-3.92;74.35;100651.31;5092378;28;20475;-71
2021/12/26 05:15:18;;;;;;;8.68;3.17;;;;;;;-3.89;74.69;100658.91;5092326;28;20077;-71
2021/12/26 05:17:44;;;;;;;6.30;2.92;;;;;;;-3.90;74.46;100659.88;5092391;28;20046;-70
2021/12/26 05:20:12;;;;;;;7.82;3.83;;;;;;;-3.92;74.46;100653.09;5092119;28;20102;-71
2021/12/26 05:22:37;;;;;;;2.97;1.98;;;;;;;-3.94;75.09;100649.78;5090931;28;20395;-71
2021/12/26 05:25:06;;;;;;;5.80;2.85;;;;;;;-4.00;74.34;100649.25;5085494;28;20036;-70
2021/12/26 05:27:32;;;;;;;8.02;3.28;;;;;;;-4.00;75.58;100651.88;5072737;28;20375;-70
2021/12/26 05:29:57;;;;;;;4.53;2.40;;;;;;;-4.00;74.92;100649.25;5072631;28;20036;-70
2021/12/26 05:32:23;;;;;;;5.47;2.70;;;;;;;-4.01;75.61;100651.97;5071360;28;20055;-71
2021/12/26 05:34:48;;;;;;;7.35;3.45;;;;;;;-4.05;75.35;100646.16;5091930;28;20036;-70
2021/12/26 05:37:13;;;;;;;9.57;4.30;;;;;;;-4.08;75.87;100654.19;5092120;28;20123;-71
2021/12/26 05:39:39;;;;;;;5.40;2.78;;;;;;;-4.09;74.72;100655.09;5082471;28;20064;-70
2021/12/26 05:42:05;;;;;;;5.28;2.55;;;;;;;-4.10;75.73;100655.22;5085370;28;20138;-71
2021/12/26 05:44:30;;;;;;;8.48;3.35;;;;;;;-4.24;75.22;100627.56;5091568;28;20035;-71
2021/12/26 05:46:55;;;;;;;5.18;3.15;;;;;;;-4.16;75.32;100642.66;5073793;28;20029;-71
2021/12/26 05:49:21;;;;;;;6.50;2.75;;;;;;;-4.15;75.53;100636.47;5087677;28;20070;-71
2021/12/26 05:51:46;;;;;;;5.53;2.85;;;;;;;-4.17;75.48;100641.78;5090755;28;20024;-71
2021/12/26 05:54:13;;;;;;;6.95;3.47;;;;;;;-4.23;75.89;100621.41;5091377;28;20057;-71
2021/12/26 05:56:38;;;;;;;5.68;2.55;;;;;;;-4.20;75.55;100626.38;5091500;28;20495;-70
2021/12/26 05:59:04;;;;;;;5.90;2.85;;;;;;;-4.22;75.60;100623.91;5091527;28;20127;-71
2021/12/26 06:01:30;;;;;;;5.22;2.90;;;;;;;-4.25;76.72;100616.28;5091419;28;20040;-73
2021/12/26 06:03:55;;;;;;;7.88;3.00;;;;;;;-4.25;75.95;100628.47;5091361;28;20077;-71
2021/12/26 06:06:20;;;;;;;8.57;4.18;;;;;;;-4.27;76.53;100626.00;5089714;28;20094;-71
2021/12/26 06:08:46;;;;;;;6.07;3.10;;;;;;;-4.27;75.98;100627.75;5091485;28;20035;-71
2021/12/26 06:11:11;;;;;;;5.28;2.45;;;;;;;-4.25;76.15;100637.09;5091177;28;20027;-71
2021/12/26 06:13:37;;;;;;;5.45;2.92;;;;;;;-4.27;75.96;100632.94;5090804;28;20032;-70
2021/12/26 06:16:03;;;;;;;8.15;3.00;;;;;;;-4.26;76.10;100635.47;5091163;28;20061;-71
2021/12/26 06:18:28;;;;;;;7.85;3.10;;;;;;;-4.26;75.93;100632.84;5090986;28;20050;-71
2021/12/26 06:20:53;;;;;;;7.85;2.67;;;;;;;-4.34;75.66;100627.34;5090906;28;20451;-70
2021/12/26 06:23:19;;;;;;;5.80;2.42;;;;;;;-4.32;75.88;100625.47;5090984;28;20538;-70
2021/12/26 06:25:44;;;;;;;7.28;3.92;;;;;;;-4.28;76.95;100628.69;5090945;28;20036;-70
2021/12/26 06:28:10;;;;;;;7.95;3.45;;;;;;;-4.31;76.56;100626.31;5090456;28;20501;-71
2021/12/26 06:30:35;;;;;;;10.13;3.42;;;;;;;-4.29;77.01;100624.44;5090349;28;20138;-71
2021/12/26 06:33:01;;;;;;;6.00;2.83;;;;;;;-4.27;76.73;100625.13;5090956;28;20463;-73
2021/12/26 06:35:27;;;;;;;4.75;2.88;;;;;;;-4.29;77.08;100622.66;5089516;28;20122;-71
2021/12/26 06:37:52;;;;;;;6.78;2.50;;;;;;;-4.30;76.91;100628.78;5090971;28;20853;-71
2021/12/26 06:40:17;;;;;;;12.27;4.55;;;;;;;-4.32;78.01;100635.91;5082960;28;20040;-71
2021/12/26 06:42:45;;;;;;;7.43;3.33;;;;;;;-4.31;77.31;100631.50;5070453;28;20017;-71
2021/12/26 06:45:15;;;;;;;5.28;2.40;;;;;;;-4.33;77.69;100626.41;5088622;28;20483;-71
2021/12/26 06:47:42;;;;;;;6.45;2.85;;;;;;;-4.33;78.57;100628.19;5090398;28;20608;-71
2021/12/26 06:50:08;;;;;;;6.72;3.20;;;;;;;-4.37;78.14;100611.13;5077002;28;20032;-71
2021/12/26 06:52:34;;;;;;;8.35;3.42;;;;;;;-4.31;77.99;100626.31;5090230;28;20475;-71
2021/12/26 06:54:59;;;;;;;5.45;2.85;;;;;;;-4.29;77.15;100622.66;5089586;28;20048;-71
2021/12/26 06:57:25;;;;;;;6.15;3.03;;;;;;;-4.37;78.20;100611.13;5090444;28;20055;-71
2021/12/26 06:59:51;;;;;;;9.15;3.30;;;;;;;-4.29;78.09;100633.06;5090403;28;20486;-71
2021/12/26 07:02:16;;;;;;;5.10;3.05;;;;;;;-4.30;78.36;100620.97;5085620;28;20043;-71
2021/12/26 07:04:41;;;;;;;7.05;3.58;;;;;;;-4.29;78.64;100625.25;5070914;28;20059;-71
2021/12/26 07:07:07;;;;;;;9.18;4.10;;;;;;;-4.28;77.86;100620.88;5069352;28;20036;-71
2021/12/26 07:09:32;;;;;;;6.38;3.47;;;;;;;-4.29;78.66;100620.06;5070562;28;20036;-70
2021/12/26 07:11:58;;;;;;;10.57;3.63;;;;;;;-4.29;78.75;100620.06;5078099;28;20052;-71
2021/12/26 07:14:23;;;;;;;7.35;2.90;;;;;;;-4.29;78.66;100614.84;5070610;28;20399;-71
2021/12/26 07:16:49;;;;;;;5.55;2.95;;;;;;;-4.28;79.03;100613.91;5090027;28;20032;-71
2021/12/26 07:19:14;;;;;;;9.23;4.38;;;;;;;-4.27;77.97;100615.56;5090022;28;20055;-70
2021/12/26 07:21:40;;;;;;;9.70;3.38;;;;;;;-4.25;79.13;100615.44;5089989;28;20504;-70
2021/12/26 07:24:06;;;;;;;6.88;2.88;;;;;;;-4.26;78.74;100621.63;5089661;28;20035;-70
2021/12/26 07:26:32;;;;;;;6.78;3.03;;;;;;;-4.26;78.67;100617.22;5089878;28;20049;-71
2021/12/26 07:28:57;;;;;;;8.25;3.45;;;;;;;-4.26;79.27;100613.81;5089682;28;20046;-70
2021/12/26 07:31:23;;;;;;;6.10;3.10;;;;;;;-4.27;79.27;100612.13;5089327;28;20031;-71
2021/12/26 07:33:48;;;;;;;7.10;3.22;;;;;;;-4.27;79.40;100612.13;5087610;28;20043;-70
2021/12/26 07:36:13;;;;;;;5.28;2.88;;;;;;;-4.26;79.91;100614.63;5089701;28;20034;-70
2021/12/26 07:38:39;;;;;;;9.35;3.78;;;;;;;-4.23;79.67;100613.59;5089539;28;20036;-71
2021/12/26 07:41:04;;;;;;;7.70;3.63;;;;;;;-4.25;79.10;100607.66;5089497;28;20020;-71
2021/12/26 07:43:30;;;;;;;5.10;3.13;;;;;;;-4.16;78.90;100614.00;5089223;28;20027;-70
2021/12/26 07:45:55;;;;;;;7.55;3.22;;;;;;;-4.15;79.33;100613.03;5069474;28;20036;-71
2021/12/26 07:48:21;;;;;;;7.25;3.55;;;;;;;-4.20;79.34;100608.97;5070116;28;20020;-71
2021/12/26 07:50:46;;;;;;;6.40;2.90;;;;;;;-4.12;79.02;100618.88;5068794;28;20029;-71
2021/12/26 07:53:12;;;;;;;5.03;3.35;;;;;;;-4.14;79.12;100618.13;5076874;28;20056;-71
2021/12/26 07:55:39;;;;;;;6.13;3.42;;;;;;;-4.12;78.75;100616.25;5087466;28;20049;-73
2021/12/26 07:58:05;;;;;;;6.80;3.63;;;;;;;-4.11;79.56;100617.94;5089492;28;20031;-71
2021/12/26 08:00:31;;;;;;;6.75;3.40;;;;;;;-4.14;79.05;100606.88;5089158;28;20480;-71
2021/12/26 08:02:57;;;;;;;8.13;4.57;;;;;;;-4.08;79.60;100615.13;5089308;28;20043;-71
2021/12/26 08:05:23;;;;;;;7.50;3.22;;;;;;;-4.08;79.49;100615.13;5089075;28;20028;-70
2021/12/26 08:07:49;;;;;;;5.47;2.75;;;;;;;-4.04;79.29;100623.53;5088997;28;20024;-70
2021/12/26 08:10:15;;;;;;;9.48;4.00;;;;;;;-4.01;79.12;100618.09;5089055;28;20475;-71
2021/12/26 08:12:40;;;;;;;9.50;3.70;;;;;;;-3.99;79.33;100618.84;5089257;28;20028;-71
2021/12/26 08:15:06;;;;;;;8.07;3.92;;;;;;;-3.96;79.51;100629.03;5089152;28;20072;-71
2021/12/26 08:17:32;;;;;;;10.50;3.78;;;;;;;-3.97;79.64;100625.59;5089186;28;20024;-71
2021/12/26 08:19:58;;;;;;;7.88;3.47;;;;;;;-3.90;79.52;100626.00;5089052;28;20039;-71
2021/12/26 08:22:24;;;;;;;9.75;3.97;;;;;;;-3.87;78.73;100625.78;5088900;28;20032;-71
2021/12/26 08:24:49;;;;;;;6.50;3.22;;;;;;;-3.87;78.93;100620.56;5088965;28;20424;-71
2021/12/26 08:27:14;;;;;;;6.45;2.95;;;;;;;-3.80;79.27;100629.63;5087603;28;20433;-71
2021/12/26 08:29:40;;;;;;;6.20;3.67;;;;;;;-3.79;79.49;100620.03;5088673;28;20040;-71
2021/12/26 08:32:07;;;;;;;6.68;2.85;;;;;;;-3.70;78.89;100635.00;5088732;28;20028;-70
2021/12/26 08:34:32;;;;;;;6.50;3.47;;;;;;;-3.64;78.91;100631.97;5088329;28;20039;-72
2021/12/26 08:37:01;;;;;;;5.00;2.88;;;;;;;-3.56;78.61;100634.00;5088236;28;20016;-71
2021/12/26 08:39:29;;;;;;;8.20;3.80;;;;;;;-3.46;78.94;100636.75;5087552;28;20089;-70
2021/12/26 08:41:54;;;;;;;6.50;3.55;;;;;;;-3.40;78.35;100625.91;5088906;28;20036;-70
2021/12/26 08:44:21;;;;;;;11.93;4.70;;;;;;;-3.34;78.44;100634.09;5088877;28;20028;-70
2021/12/26 08:46:46;;;;;;;11.20;3.67;;;;;;;-3.27;78.75;100631.88;5088366;28;20085;-71
2021/12/26 08:49:13;;;;;;;9.68;3.95;;;;;;;-3.22;78.62;100621.94;5088764;28;20487;-71
2021/12/26 08:51:40;;;;;;;10.30;4.53;;;;;;;-3.17;77.98;100626.81;5088805;28;20050;-71
2021/12/26 08:54:06;;;;;;;10.95;3.75;;;;;;;-3.13;78.18;100623.84;5071840;28;20540;-70
2021/12/26 08:56:31;;;;;;;9.75;4.13;;;;;;;-3.06;77.93;100629.47;5069105;28;20024;-70
2021/12/26 08:58:57;;;;;;;9.88;3.47;;;;;;;-3.02;78.46;100630.88;5069117;28;20024;-71
2021/12/26 09:01:22;;;;;;;7.53;3.97;;;;;;;-3.00;77.65;100631.59;5069436;28;20383;-72
2021/12/26 09:03:47;;;;;;;8.40;3.90;;;;;;;-2.85;77.77;100647.91;5069509;28;20074;-71
2021/12/26 09:06:13;;;;;;;7.00;3.45;;;;;;;-2.79;77.49;100644.00;5073010;28;20032;-70
2021/12/26 09:08:39;;;;;;;10.00;3.22;;;;;;;-2.71;77.33;100646.84;5073241;28;20046;-70
2021/12/26 09:11:04;;;;;;;9.95;4.05;;;;;;;-2.66;76.78;100647.34;5072925;28;20028;-69
2021/12/26 09:13:30;;;;;;;7.15;3.65;;;;;;;-2.60;77.09;100640.81;5073002;28;20486;-70
2021/12/26 09:15:55;;;;;;;6.32;3.15;;;;;;;-2.56;77.13;100631.81;5080825;28;20402;-70
2021/12/26 09:18:21;;;;;;;7.90;3.67;;;;;;;-2.52;77.19;100628.81;5092224;28;20065;-69
2021/12/26 09:20:46;;;;;;;8.27;3.75;;;;;;;-2.48;76.97;100627.66;5092335;28;20143;-69
2021/12/26 09:23:12;;;;;;;6.00;3.28;;;;;;;-2.44;76.67;100620.41;5072579;28;20067;-71
2021/12/26 09:25:37;;;;;;;6.65;3.30;;;;;;;-2.42;76.39;100621.13;5072500;28;20035;-69
2021/12/26 09:28:03;;;;;;;9.95;4.38;;;;;;;-2.40;76.20;100615.78;5070751;28;20025;-71
2021/12/26 09:30:30;;;;;;;6.90;3.50;;;;;;;-2.37;76.47;100624.22;5072305;28;20538;-71
2021/12/26 09:32:56;;;;;;;11.05;3.83;;;;;;;-2.34;76.96;100629.19;5091475;28;20161;-71
2021/12/26 09:35:21;;;;;;;9.18;3.42;;;;;;;-2.34;77.13;100615.31;5091642;28;20047;-71
2021/12/26 09:37:47;;;;;;;11.38;4.47;;;;;;;-2.26;76.70;100621.59;5091871;28;20028;-71
2021/12/26 09:40:14;;;;;;;8.43;4.38;;;;;;;-2.25;76.66;100618.03;5091847;28;20989;-72
2021/12/26 09:42:41;;;;;;;10.25;4.43;;;;;;;-2.19;76.41;100616.72;5091688;28;20093;-71
2021/12/26 09:45:09;;;;;;;4.32;3.08;;;;;;;-2.17;76.65;100606.16;5091717;28;20024;-71
2021/12/26 09:47:35;;;;;;;9.80;4.30;;;;;;;-2.11;76.52;100613.53;5091358;28;20031;-71
2021/12/26 09:50:01;;;;;;;9.60;3.72;;;;;;;-2.07;76.89;100617.53;5090651;28;20426;-71
2021/12/26 09:52:27;;;;;;;6.97;4.00;;;;;;;-2.03;76.27;100604.13;5091411;28;20035;-71
2021/12/26 09:54:52;;;;;;;7.78;3.88;;;;;;;-2.07;76.43;100613.16;5078508;28;20056;-71
2021/12/26 09:57:18;;;;;;;8.30;4.00;;;;;;;-2.02;75.97;100620.63;5074536;28;20039;-71
2021/12/26 09:59:47;;;;;;;9.90;4.00;;;;;;;-1.96;76.92;100621.94;5073490;28;20036;-71
2021/12/26 10:02:14;;;;;;;9.27;3.80;;;;;;;-1.91;76.79;100618.00;5091518;28;20503;-71
2021/12/26 10:04:41;;;;;;;7.55;4.75;;;;;;;-1.90;76.60;100619.66;5094465;28;20032;-71
2021/12/26 10:07:11;;;;;;;8.30;3.88;;;;;;;-1.84;76.79;100606.09;5091224;28;20866;-71
2021/12/26 10:09:45;;;;;;;10.02;4.40;;;;;;;-1.78;76.45;100607.41;5091268;28;20115;-68
2021/12/26 10:12:14;;;;;;;11.38;4.47;;;;;;;-1.73;76.93;100592.16;5091088;28;20046;-71
2021/12/26 10:14:43;;;;;;;9.07;4.38;;;;;;;-1.67;76.15;100599.53;5091192;28;20487;-70
2021/12/26 10:17:12;;;;;;;11.57;4.20;;;;;;;-1.69;76.41;100587.53;5090180;28;20047;-71
2021/12/26 10:19:44;;;;;;;14.90;4.45;;;;;;;-1.62;77.25;100583.47;5091009;28;20032;-69
2021/12/26 10:22:12;;;;;;;11.90;4.60;;;;;;;-1.59;77.46;100583.22;5089788;28;20039;-71
2021/12/26 10:24:45;;;;;;;9.80;4.85;;;;;;;-1.50;76.97;100574.59;5090409;28;20063;-69
2021/12/26 10:27:16;;;;;;;10.07;4.57;;;;;;;-1.39;76.72;100584.19;5090267;28;20363;-69
2021/12/26 10:29:47;;;;;;;8.88;4.22;;;;;;;-1.34;76.58;100575.03;5090916;28;20132;-69
2021/12/26 10:32:18;;;;;;;11.50;4.90;;;;;;;-1.29;76.91;100574.63;5090799;28;20134;-72
2021/12/26 10:34:46;;;;;;;7.80;4.35;;;;;;;-1.23;76.49;100574.13;5090649;28;20024;-72
2021/12/26 10:37:21;;;;;;;9.40;4.45;;;;;;;-1.20;76.75;100571.25;5090768;28;20024;-69
2021/12/26 10:39:58;;;;;;;10.60;4.43;;;;;;;-1.13;76.72;100571.56;5090744;28;20114;-69
2021/12/26 10:42:29;;;;;;;12.05;4.45;;;;;;;-1.18;76.50;100551.03;5090546;28;20077;-72
2021/12/26 10:44:57;;;;;;;14.68;4.75;;;;;;;-1.09;76.92;100554.66;5090363;28;20031;-69
2021/12/26 10:47:32;;;;;;;8.52;3.35;;;;;;;-1.04;76.97;100544.63;5090257;28;20020;-72
2021/12/26 10:50:03;;;;;;;10.00;4.60;;;;;;;-1.03;76.34;100541.06;5090072;28;20032;-72
2021/12/26 10:52:35;;;;;;;11.40;4.70;;;;;;;-1.00;76.83;100539.97;5071056;28;20040;-71
2021/12/26 10:55:14;;;;;;;7.80;4.32;;;;;;;-0.98;76.71;100546.72;5090102;28;20543;-69
2021/12/26 10:57:41;;;;;;;11.52;5.07;;;;;;;-0.97;76.76;100534.47;5090357;28;20055;-69
2021/12/26 11:00:10;;;;;;;12.13;6.20;;;;;;;-0.93;76.69;100554.19;5089721;28;20459;-71
2021/12/26 11:02:39;;;;;;;9.80;4.85;;;;;;;-0.92;76.74;100551.47;5089698;28;20040;-69
2021/12/26 11:05:12;;;;;;;13.52;5.82;;;;;;;-0.89;76.88;100548.59;5089080;28;20092;-69
2021/12/26 11:07:59;;;;;;;11.70;5.15;;;;;;;-0.88;76.59;100546.78;5090235;28;20463;-69
2021/12/26 11:10:31;;;;;;;11.90;4.95;;;;;;;-0.83;76.59;100549.84;5078609;28;20116;-70
2021/12/26 11:12:59;;;;;;;11.07;4.80;;;;;;;-0.82;76.68;100538.41;5079649;28;20065;-72
2021/12/26 11:15:31;;;;;;;11.65;5.40;;;;;;;-0.84;76.46;100540.31;5070646;28;20087;-69
2021/12/26 11:18:03;;;;;;;15.05;6.28;;;;;;;-0.78;77.04;100534.56;5070701;28;20564;-69
2021/12/26 11:20:37;;;;;;;11.32;5.03;;;;;;;-0.73;76.67;100537.63;5070536;28;20024;-71
2021/12/26 11:23:09;;;;;;;10.88;4.78;;;;;;;-0.69;77.40;100539.00;5070331;28;20017;-69
2021/12/26 11:25:37;;;;;;;14.00;5.63;;;;;;;-0.67;76.49;100531.84;5070669;28;20033;-71
2021/12/26 11:28:03;;;;;;;12.05;4.90;;;;;;;-0.80;77.14;100506.88;5070087;28;20024;-69
2021/12/26 11:30:28;;;;;;;13.82;5.57;;;;;;;-0.64;76.84;100536.00;5070112;28;20484;-72